Time;durP1;ratioP1;P1;durP2;ratioP2;P2;SDS_P1;SDS_P2;PMS_P1;PMS_P2;Temp;Humidity;BMP_temperature;BMP_pressure;BME280_temperature;BME280_humidity;BME280_pressure;Samples;Min_cycle;Max_cycle;Signal;HPM_P1;HPM_P2
2022/12/22 03:26:42;;;;;;;10.25;9.45;;;;;;;2.59;82.13;101407.30;463695;112;923183;-82
2022/12/22 03:27:45;;;;;;;10.38;9.53;;;;;;;2.60;82.14;101408.98;463322;114;922648;-83
2022/12/22 03:28:48;;;;;;;10.13;9.25;;;;;;;2.62;82.14;101406.16;463335;114;922502;-82
2022/12/22 03:29:51;;;;;;;10.59;9.70;;;;;;;2.62;82.12;101406.16;463290;114;922783;-81
2022/12/22 03:31:00;;;;;;;10.69;9.88;;;;;;;2.63;82.12;101411.41;463338;114;922508;-82
2022/12/22 03:32:04;;;;;;;9.96;9.12;;;;;;;2.66;82.08;101410.25;467144;112;922576;-80
2022/12/22 03:33:07;;;;;;;9.60;8.88;;;;;;;2.68;82.06;101410.97;471589;112;922922;-81
2022/12/22 03:34:10;;;;;;;9.05;8.32;;;;;;;2.69;82.01;101404.59;471605;112;922622;-80
2022/12/22 03:35:13;;;;;;;10.09;9.26;;;;;;;2.69;81.95;101397.37;471590;112;922506;-80
2022/12/22 03:36:16;;;;;;;9.48;8.78;;;;;;;2.72;82.07;101401.60;462029;115;922900;-83
2022/12/22 03:37:19;;;;;;;10.75;9.63;;;;;;;2.73;82.05;101404.16;464732;112;923014;-80
2022/12/22 03:38:23;;;;;;;10.49;9.11;;;;;;;2.75;81.92;101404.88;463339;114;922586;-80
2022/12/22 03:39:26;;;;;;;10.58;9.68;;;;;;;2.76;81.98;101398.47;463252;114;922628;-82
2022/12/22 03:40:30;;;;;;;9.79;8.97;;;;;;;2.80;81.97;101409.82;463269;114;930490;-81
2022/12/22 03:47:00;;;;;;;10.69;9.74;;;;;;;2.85;81.87;101411.09;466548;112;922576;-82
2022/12/22 03:48:03;;;;;;;10.34;9.44;;;;;;;2.87;81.84;101411.77;471528;112;922966;-82
2022/12/22 03:49:09;;;;;;;10.93;9.96;;;;;;;2.87;81.85;101414.47;471939;112;922333;-81
2022/12/22 03:50:13;;;;;;;9.74;8.93;;;;;;;2.88;81.93;101409.93;472182;112;921967;-82
2022/12/22 03:51:16;;;;;;;9.81;8.96;;;;;;;2.89;81.83;101408.94;472035;112;922384;-81
2022/12/22 03:52:19;;;;;;;10.48;9.49;;;;;;;2.91;81.86;101412.35;470909;112;922492;-81
2022/12/22 03:53:22;;;;;;;11.23;9.66;;;;;;;2.90;81.88;101406.11;472589;112;922130;-81
2022/12/22 03:54:25;;;;;;;9.61;8.75;;;;;;;2.91;81.69;101407.81;472213;112;922854;-81
2022/12/22 03:55:29;;;;;;;10.53;9.56;;;;;;;2.92;81.83;101404.10;468605;112;922527;-82
2022/12/22 03:56:32;;;;;;;10.21;9.09;;;;;;;2.93;81.67;101408.50;463251;112;922991;-82
2022/12/22 03:57:36;;;;;;;10.08;9.23;;;;;;;2.94;81.79;101412.91;463186;114;922558;-81
2022/12/22 03:58:39;;;;;;;10.18;9.30;;;;;;;2.96;81.66;101414.60;463238;114;922683;-82
2022/12/22 03:59:42;;;;;;;10.64;9.73;;;;;;;2.94;81.61;101412.91;463251;114;922554;-82
2022/12/22 04:00:46;;;;;;;10.31;9.42;;;;;;;2.96;81.70;101415.45;463159;114;922524;-82
2022/12/22 04:01:53;;;;;;;9.33;8.61;;;;;;;2.95;81.61;101419.14;463744;112;922468;-82
2022/12/22 04:02:59;;;;;;;10.61;9.77;;;;;;;2.96;81.59;101412.77;463018;114;922824;-83
2022/12/22 04:04:03;;;;;;;9.85;9.08;;;;;;;2.95;81.58;101413.75;463015;114;922498;-82
2022/12/22 04:05:06;;;;;;;9.24;8.39;;;;;;;2.95;81.68;101416.45;463161;114;922608;-80
2022/12/22 04:06:10;;;;;;;8.57;7.87;;;;;;;2.95;81.69;101416.45;463070;114;922467;-80
2022/12/22 04:07:14;;;;;;;9.31;8.57;;;;;;;2.94;81.70;101417.44;462049;112;922506;-80
2022/12/22 04:08:17;;;;;;;8.96;8.19;;;;;;;2.94;81.61;101412.91;461113;115;922478;-80
2022/12/22 04:09:21;;;;;;;8.98;8.23;;;;;;;2.96;81.71;101419.99;461135;115;922559;-81
2022/12/22 04:13:07;;;;;;;8.75;8.07;;;;;;;2.93;81.68;101416.58;463077;114;922522;-82
2022/12/22 04:14:10;;;;;;;8.81;8.11;;;;;;;2.94;81.78;101418.29;463236;114;922652;-81
2022/12/22 04:15:14;;;;;;;8.94;8.21;;;;;;;2.94;81.84;101423.67;463248;114;922514;-81
2022/12/22 04:16:17;;;;;;;9.67;8.87;;;;;;;2.96;82.01;101423.53;463310;114;922558;-81
2022/12/22 04:17:20;;;;;;;10.86;9.91;;;;;;;2.97;82.04;101417.16;469577;112;922312;-81
2022/12/22 04:18:23;;;;;;;11.25;10.16;;;;;;;2.98;81.94;101415.32;471496;112;922810;-81
2022/12/22 04:19:26;;;;;;;10.04;9.25;;;;;;;2.98;81.95;101421.53;471477;112;922896;-81
2022/12/22 04:20:30;;;;;;;10.43;9.44;;;;;;;2.99;82.05;101411.61;471361;112;922464;-82
2022/12/22 04:21:33;;;;;;;10.48;9.58;;;;;;;2.99;81.96;101416.99;470692;112;923097;-81
2022/12/22 04:22:36;;;;;;;11.15;10.20;;;;;;;3.00;82.09;101411.47;463171;114;922478;-81
2022/12/22 04:23:39;;;;;;;10.01;8.93;;;;;;;3.01;82.00;101415.02;463240;114;922518;-82
2022/12/22 04:24:43;;;;;;;10.29;9.41;;;;;;;3.02;82.10;101408.64;463223;114;922679;-81
2022/12/22 04:25:46;;;;;;;10.28;9.34;;;;;;;3.02;82.17;101417.58;463243;114;922960;-80
2022/12/22 04:26:49;;;;;;;10.40;9.54;;;;;;;3.04;82.11;101414.70;463710;112;922529;-81
2022/12/22 04:27:52;;;;;;;9.98;9.08;;;;;;;3.06;82.23;101410.03;463225;114;922502;-81
2022/12/22 04:28:55;;;;;;;9.74;8.92;;;;;;;3.06;82.13;101412.73;463265;114;922958;-81
2022/12/22 04:29:58;;;;;;;10.17;9.19;;;;;;;3.07;82.10;101407.20;463214;114;922488;-80
2022/12/22 04:31:01;;;;;;;9.96;9.04;;;;;;;3.09;82.10;101412.45;463215;114;922480;-80
2022/12/22 04:32:05;;;;;;;10.35;9.25;;;;;;;3.10;82.12;101414.98;463493;112;922414;-80
2022/12/22 04:33:08;;;;;;;10.95;9.84;;;;;;;3.12;82.18;101414.84;463239;114;922473;-81
2022/12/22 04:34:11;;;;;;;9.51;8.71;;;;;;;3.13;82.15;101411.16;463248;114;922933;-81
2022/12/22 04:35:14;;;;;;;9.31;8.49;;;;;;;3.15;82.24;101417.23;463226;114;922809;-83
2022/12/22 04:36:18;;;;;;;9.78;8.83;;;;;;;3.15;82.22;101420.78;463237;114;922945;-81
2022/12/22 04:37:21;;;;;;;9.56;8.66;;;;;;;3.16;82.23;101413.55;463977;112;922654;-81
2022/12/22 04:38:24;;;;;;;9.83;8.79;;;;;;;3.17;82.10;101417.95;463252;114;922479;-82
2022/12/22 04:39:27;;;;;;;9.49;8.72;;;;;;;3.18;82.18;101419.65;463278;114;922535;-82
2022/12/22 04:40:30;;;;;;;9.53;8.62;;;;;;;3.19;82.10;101418.66;463233;114;922565;-81
2022/12/22 04:41:34;;;;;;;9.71;8.81;;;;;;;3.19;82.07;101410.58;463592;112;922581;-82
2022/12/22 04:42:37;;;;;;;9.76;8.99;;;;;;;3.19;82.19;101415.97;463174;114;922597;-82
2022/12/22 04:43:40;;;;;;;10.91;9.93;;;;;;;3.21;82.08;101408.56;463230;114;922424;-81
2022/12/22 04:44:43;;;;;;;9.69;8.88;;;;;;;3.22;82.21;101410.27;463196;114;922540;-81
2022/12/22 04:45:46;;;;;;;9.53;8.62;;;;;;;3.22;82.20;101411.12;463255;114;922555;-82
2022/12/22 04:46:49;;;;;;;9.59;8.68;;;;;;;3.23;82.03;101417.36;465233;112;922437;-82
2022/12/22 04:47:53;;;;;;;9.37;8.61;;;;;;;3.23;82.05;101420.91;471495;112;922980;-83
2022/12/22 04:48:56;;;;;;;9.83;8.93;;;;;;;3.26;82.16;101417.91;471503;112;922927;-80
2022/12/22 04:50:00;;;;;;;9.13;8.29;;;;;;;3.26;82.16;101417.91;470947;112;922856;-82
2022/12/22 04:51:04;;;;;;;9.53;8.81;;;;;;;3.26;81.97;101414.36;471493;112;922515;-83
2022/12/22 04:52:07;;;;;;;9.14;8.42;;;;;;;3.27;81.98;101416.91;466158;112;922887;-81
2022/12/22 04:53:10;;;;;;;9.20;8.34;;;;;;;3.26;82.00;101417.91;463166;114;930427;-81
2022/12/22 04:54:13;;;;;;;8.94;8.18;;;;;;;3.27;81.95;101421.45;463291;114;922899;-80
2022/12/22 04:55:17;;;;;;;9.08;8.29;;;;;;;3.27;82.15;101419.61;462826;112;922621;-81
2022/12/22 04:56:20;;;;;;;9.10;8.24;;;;;;;3.28;82.21;101417.77;461964;114;922549;-82
2022/12/22 04:57:23;;;;;;;9.67;8.78;;;;;;;3.29;82.22;101419.47;469634;112;922658;-82
2022/12/22 04:58:27;;;;;;;9.85;8.96;;;;;;;3.31;82.13;101431.78;471538;112;923281;-82
2022/12/22 04:59:30;;;;;;;9.21;8.39;;;;;;;3.32;82.09;101421.86;471446;112;922511;-83
2022/12/22 05:00:33;;;;;;;8.95;8.27;;;;;;;3.32;82.08;101419.16;471519;112;922545;-82
2022/12/22 05:01:36;;;;;;;9.97;8.88;;;;;;;3.32;82.11;101421.86;470590;112;922449;-82
2022/12/22 05:02:40;;;;;;;8.81;8.00;;;;;;;3.33;82.10;101424.41;463230;114;923299;-80
2022/12/22 05:03:43;;;;;;;9.74;8.69;;;;;;;3.34;82.24;101422.58;463156;114;922518;-83
2022/12/22 05:04:47;;;;;;;9.44;8.66;;;;;;;3.34;82.15;101418.03;463061;114;930512;-82
2022/12/22 05:05:50;;;;;;;9.24;8.46;;;;;;;3.36;82.20;101418.72;463208;114;930502;-82
2022/12/22 05:06:53;;;;;;;8.80;8.05;;;;;;;3.39;82.27;101427.52;465689;112;922469;-83
2022/12/22 05:07:56;;;;;;;9.76;8.85;;;;;;;3.40;82.24;101421.98;471525;112;923114;-83
2022/12/22 05:09:00;;;;;;;8.91;8.21;;;;;;;3.41;82.34;101426.38;471550;112;922450;-82
2022/12/22 05:10:04;;;;;;;9.75;8.99;;;;;;;3.42;82.21;101422.66;471476;112;922895;-84
2022/12/22 05:11:07;;;;;;;10.02;9.10;;;;;;;3.43;82.14;101416.28;471353;112;922677;-80
2022/12/22 05:13:33;;;;;;;10.66;9.76;;;;;;;3.44;82.12;101426.08;463080;114;922456;-81
2022/12/22 05:14:36;;;;;;;10.76;9.88;;;;;;;3.46;82.15;101431.33;463148;114;922711;-82
2022/12/22 05:15:39;;;;;;;11.08;10.06;;;;;;;3.45;82.14;101430.48;463229;114;930534;-81
2022/12/22 05:16:42;;;;;;;11.28;10.28;;;;;;;3.46;82.16;101432.17;463634;112;922531;-83
2022/12/22 05:17:46;;;;;;;10.48;9.59;;;;;;;3.47;82.23;101439.28;463164;114;922517;-81
2022/12/22 05:18:49;;;;;;;12.31;11.21;;;;;;;3.49;82.30;101433.71;463241;114;922543;-83
2022/12/22 05:19:52;;;;;;;12.39;11.34;;;;;;;3.51;82.32;101437.12;463221;114;922713;-83
2022/12/22 05:20:55;;;;;;;10.76;9.86;;;;;;;3.51;82.22;101446.06;463163;114;922577;-82
2022/12/22 05:21:58;;;;;;;10.34;9.44;;;;;;;3.52;82.23;101439.67;463500;112;923023;-80
2022/12/22 05:23:02;;;;;;;10.89;10.01;;;;;;;3.54;82.34;101450.29;463262;114;922692;-81
2022/12/22 05:24:05;;;;;;;11.01;10.11;;;;;;;3.54;82.35;101444.89;463217;114;922466;-81
2022/12/22 05:25:08;;;;;;;10.61;9.71;;;;;;;3.54;82.24;101444.89;463217;114;922906;-83
2022/12/22 05:26:14;;;;;;;11.03;9.99;;;;;;;3.53;82.28;101452.13;463114;114;922526;-81
2022/12/22 05:27:17;;;;;;;10.56;9.66;;;;;;;3.52;82.39;101455.85;463564;112;928425;-81
2022/12/22 05:28:20;;;;;;;11.78;10.82;;;;;;;3.51;82.31;101443.36;463283;114;922895;-81
2022/12/22 05:29:23;;;;;;;10.68;9.79;;;;;;;3.52;82.45;101446.91;463257;114;922619;-81
2022/12/22 05:30:26;;;;;;;12.66;11.63;;;;;;;3.51;82.33;101442.52;463073;114;922583;-81
2022/12/22 05:31:30;;;;;;;10.76;9.91;;;;;;;3.50;82.34;101449.75;463248;112;922537;-81
2022/12/22 05:32:33;;;;;;;11.80;10.82;;;;;;;3.50;82.33;101457.84;460197;114;922518;-84
2022/12/22 05:33:36;;;;;;;13.19;12.09;;;;;;;3.50;82.49;101454.29;460413;115;922680;-79
2022/12/22 05:34:39;;;;;;;12.68;11.47;;;;;;;3.48;82.44;101451.73;461404;113;922548;-79
2022/12/22 05:35:43;;;;;;;12.93;11.79;;;;;;;3.48;82.36;101454.42;461396;113;922117;-79
2022/12/22 05:36:46;;;;;;;12.58;11.41;;;;;;;3.47;82.53;101447.36;462544;112;922021;-81
2022/12/22 05:37:49;;;;;;;12.46;11.36;;;;;;;3.47;82.46;101458.15;464576;114;921881;-80
2022/12/22 05:38:52;;;;;;;13.68;12.41;;;;;;;3.48;82.48;101450.87;455525;114;922204;-80
2022/12/22 05:39:55;;;;;;;13.44;12.28;;;;;;;3.49;82.60;101460.67;455836;114;922184;-79
2022/12/22 05:40:59;;;;;;;13.48;12.14;;;;;;;3.48;82.60;101454.42;464477;114;921989;-81
2022/12/22 05:42:04;;;;;;;13.21;11.98;;;;;;;3.47;82.48;101458.15;464056;113;922298;-81
2022/12/22 05:43:08;;;;;;;14.74;13.38;;;;;;;3.47;82.57;101458.15;464554;112;922489;-80
2022/12/22 05:44:11;;;;;;;13.61;12.24;;;;;;;3.47;82.44;101466.23;464376;114;922007;-79
2022/12/22 05:45:17;;;;;;;13.13;11.93;;;;;;;3.46;82.53;101461.83;462443;114;929944;-80
2022/12/22 05:46:22;;;;;;;13.44;12.28;;;;;;;3.47;82.46;101457.30;459204;116;922093;-79
2022/12/22 05:47:25;;;;;;;13.76;12.39;;;;;;;3.47;82.49;101458.15;463583;113;922200;-80
2022/12/22 05:48:29;;;;;;;12.77;11.41;;;;;;;3.47;82.62;101460.84;464947;113;929625;-79
2022/12/22 05:49:34;;;;;;;13.11;11.83;;;;;;;3.48;82.55;101459.82;463916;110;921955;-80
2022/12/22 05:50:38;;;;;;;12.28;11.18;;;;;;;3.50;82.60;101456.98;465030;114;921966;-79
2022/12/22 05:51:41;;;;;;;12.86;11.54;;;;;;;3.51;82.70;101456.84;455185;115;922054;-80
2022/12/22 05:52:45;;;;;;;11.88;10.75;;;;;;;3.53;82.57;101456.70;449180;115;922212;-80
2022/12/22 05:53:48;;;;;;;12.21;11.12;;;;;;;3.53;82.69;101454.83;456991;116;922195;-81
2022/12/22 05:54:51;;;;;;;11.34;10.32;;;;;;;3.55;82.57;101457.39;457035;114;922002;-79
2022/12/22 05:55:54;;;;;;;12.79;11.23;;;;;;;3.56;82.55;101457.25;456387;114;922343;-82
2022/12/22 05:56:58;;;;;;;10.94;9.89;;;;;;;3.56;82.68;101457.25;456256;114;922473;-81
2022/12/22 05:58:01;;;;;;;11.83;10.84;;;;;;;3.58;82.55;101454.41;455907;116;930043;-82
2022/12/22 05:59:04;;;;;;;12.44;11.27;;;;;;;3.58;82.65;101457.96;455860;116;922453;-81
2022/12/22 06:00:11;;;;;;;13.34;11.93;;;;;;;3.59;82.66;101451.55;455746;116;928024;-78
2022/12/22 06:01:15;;;;;;;12.35;11.30;;;;;;;3.60;82.77;101455.09;455657;116;930811;-81
2022/12/22 06:02:18;;;;;;;12.47;11.31;;;;;;;3.61;82.76;101452.26;454581;114;922481;-81
2022/12/22 06:03:22;;;;;;;13.11;12.01;;;;;;;3.61;82.71;101454.95;453671;117;922613;-80
2022/12/22 06:04:25;;;;;;;13.74;12.47;;;;;;;3.62;82.73;101455.80;453612;117;930344;-80
2022/12/22 06:05:29;;;;;;;13.54;12.31;;;;;;;3.62;82.64;101458.50;453633;117;922613;-83
2022/12/22 06:06:32;;;;;;;13.59;12.31;;;;;;;3.62;82.71;101456.66;454534;114;930244;-82
2022/12/22 06:07:35;;;;;;;14.04;12.70;;;;;;;3.63;82.60;101463.75;463958;114;923244;-82
2022/12/22 06:08:38;;;;;;;13.39;12.07;;;;;;;3.63;82.63;101458.36;463949;114;922979;-81
2022/12/22 06:09:41;;;;;;;12.31;11.32;;;;;;;3.64;82.73;101460.03;463918;114;922485;-81
2022/12/22 06:10:44;;;;;;;14.58;13.16;;;;;;;3.64;82.71;101460.03;463919;114;922439;-81
2022/12/22 06:11:48;;;;;;;13.21;12.03;;;;;;;3.66;82.61;101462.59;461807;114;922687;-83
2022/12/22 06:12:51;;;;;;;14.09;12.83;;;;;;;3.67;82.74;101459.75;455785;116;922896;-81
2022/12/22 06:13:54;;;;;;;14.95;13.42;;;;;;;3.68;82.63;101461.46;455738;116;922907;-81
2022/12/22 06:14:57;;;;;;;13.94;12.06;;;;;;;3.69;82.72;101462.31;455767;116;922517;-82
2022/12/22 06:16:00;;;;;;;12.62;11.53;;;;;;;3.70;82.61;101455.89;455807;116;922495;-81
2022/12/22 06:17:03;;;;;;;13.04;11.81;;;;;;;3.71;82.66;101461.14;456533;114;922604;-81
2022/12/22 06:18:06;;;;;;;13.84;12.66;;;;;;;3.73;82.63;101463.70;455748;116;922874;-80
2022/12/22 06:19:09;;;;;;;13.36;12.08;;;;;;;3.74;82.58;101468.11;455766;116;922529;-81
2022/12/22 06:20:13;;;;;;;12.38;11.14;;;;;;;3.75;82.66;101470.63;455721;116;922950;-79
2022/12/22 06:21:16;;;;;;;12.76;11.52;;;;;;;3.76;82.73;101458.84;455689;116;922436;-83
2022/12/22 06:22:20;;;;;;;12.61;11.51;;;;;;;3.78;82.58;101462.26;461754;114;922511;-81
2022/12/22 06:23:23;;;;;;;13.63;12.38;;;;;;;3.80;82.51;101464.81;463707;114;922338;-81
2022/12/22 06:24:26;;;;;;;15.82;11.96;;;;;;;3.83;82.47;101463.65;454547;116;922902;-81
2022/12/22 06:25:30;;;;;;;13.21;12.04;;;;;;;3.84;82.58;101460.81;454483;116;922464;-80
2022/12/22 06:26:33;;;;;;;13.99;12.34;;;;;;;3.86;82.53;101463.37;453969;116;923025;-81
2022/12/22 06:27:36;;;;;;;11.59;10.67;;;;;;;3.87;82.40;101465.89;446815;118;922618;-81
2022/12/22 06:28:39;;;;;;;12.75;11.66;;;;;;;3.90;82.54;101464.76;446814;118;922599;-81
2022/12/22 06:29:42;;;;;;;12.93;11.82;;;;;;;3.91;82.40;101466.47;446801;118;922852;-81
2022/12/22 06:30:47;;;;;;;13.29;12.06;;;;;;;3.92;82.34;101468.13;446806;118;922542;-83
2022/12/22 06:31:50;;;;;;;12.70;11.31;;;;;;;3.94;82.30;101468.84;447085;116;922490;-80
2022/12/22 06:32:53;;;;;;;13.59;12.01;;;;;;;3.94;82.26;101467.00;446735;118;930264;-82
2022/12/22 06:33:56;;;;;;;12.73;11.62;;;;;;;3.96;82.29;101470.41;446755;118;922568;-82
2022/12/22 06:34:59;;;;;;;11.71;10.70;;;;;;;3.98;82.27;101472.94;446895;118;922898;-83
2022/12/22 06:36:06;;;;;;;12.13;10.99;;;;;;;3.98;82.23;101468.39;446829;118;922497;-83
2022/12/22 06:37:10;;;;;;;12.64;11.44;;;;;;;4.01;82.05;101478.90;446711;116;922621;-82
2022/12/22 06:38:13;;;;;;;12.71;11.46;;;;;;;4.01;82.17;101473.50;437893;121;922778;-83
2022/12/22 06:39:16;;;;;;;12.57;11.56;;;;;;;4.03;82.07;101470.63;446461;119;922536;-81
2022/12/22 06:40:19;;;;;;;12.69;11.19;;;;;;;4.03;82.01;101471.48;437737;121;922361;-81
2022/12/22 06:44:07;;;;;;;11.97;10.91;;;;;;;4.05;81.77;101474.04;448461;118;922963;-82
2022/12/22 06:45:11;;;;;;;12.68;11.57;;;;;;;4.04;81.78;101466.94;449135;118;922502;-81
2022/12/22 06:46:14;;;;;;;12.47;11.30;;;;;;;4.05;81.92;101471.34;443521;117;922552;-82
2022/12/22 06:47:17;;;;;;;13.26;12.17;;;;;;;4.07;81.80;101472.05;443450;117;930357;-81
2022/12/22 06:48:21;;;;;;;11.86;10.91;;;;;;;4.06;81.76;101470.34;445755;119;922469;-81
2022/12/22 06:49:24;;;;;;;10.96;10.01;;;;;;;4.10;81.76;101477.13;445539;119;922526;-82
2022/12/22 06:50:27;;;;;;;12.08;10.81;;;;;;;4.10;81.85;101472.59;445628;119;922950;-83
2022/12/22 06:51:30;;;;;;;10.93;10.06;;;;;;;4.12;81.72;101476.00;445419;119;922529;-80
2022/12/22 06:52:34;;;;;;;12.48;11.31;;;;;;;4.14;81.81;101473.13;453163;117;922879;-80
2022/12/22 06:53:37;;;;;;;10.38;9.49;;;;;;;4.17;81.71;101475.53;453254;117;922575;-81
2022/12/22 06:54:40;;;;;;;11.07;10.17;;;;;;;4.18;81.68;101467.30;453294;117;923347;-83
2022/12/22 06:55:44;;;;;;;10.95;10.14;;;;;;;4.21;81.68;101471.52;448144;117;922922;-81
2022/12/22 06:56:47;;;;;;;11.00;10.09;;;;;;;4.23;81.74;101474.93;446132;117;922530;-81
2022/12/22 06:57:50;;;;;;;10.68;9.77;;;;;;;4.25;81.67;101481.00;441715;120;922605;-84
2022/12/22 06:58:54;;;;;;;10.89;9.94;;;;;;;4.26;81.45;101476.45;437755;121;922613;-82
2022/12/22 06:59:57;;;;;;;11.04;10.01;;;;;;;4.27;81.60;101479.02;445631;119;922508;-82
2022/12/22 07:01:00;;;;;;;11.03;10.03;;;;;;;4.29;81.45;101477.03;441665;120;922514;-81
2022/12/22 07:02:04;;;;;;;10.61;9.54;;;;;;;4.31;81.42;101474.15;445769;117;930038;-83
2022/12/22 07:03:07;;;;;;;11.71;10.64;;;;;;;4.32;81.39;101481.25;445573;119;922533;-82
2022/12/22 07:04:15;;;;;;;10.84;9.92;;;;;;;4.34;81.37;101476.56;445473;119;930319;-82
2022/12/22 07:05:16;;;;;;;10.71;9.81;;;;;;;4.36;81.47;101480.79;445227;119;922545;-81
2022/12/22 07:06:19;;;;;;;10.88;9.91;;;;;;;4.38;81.29;101477.95;445608;119;922462;-80
2022/12/22 07:07:23;;;;;;;11.14;10.24;;;;;;;4.39;81.20;101483.20;443518;117;922312;-82
2022/12/22 07:08:26;;;;;;;10.58;9.18;;;;;;;4.41;81.26;101481.18;435384;122;922558;-80
2022/12/22 07:09:30;;;;;;;10.31;9.33;;;;;;;4.41;81.16;101486.58;442725;120;930536;-82
2022/12/22 07:11:55;;;;;;;9.65;8.81;;;;;;;4.45;81.09;101479.05;439035;119;922532;-81
2022/12/22 07:13:17;;;;;;;10.02;9.14;;;;;;;4.46;81.14;101487.00;441526;120;922599;-81
2022/12/22 07:14:03;;;;;;;9.67;8.78;;;;;;;4.46;81.03;101478.90;446929;117;922508;-81
2022/12/22 07:15:08;;;;;;;9.37;8.64;;;;;;;4.48;81.01;101479.57;445571;119;922976;-82
2022/12/22 07:16:11;;;;;;;9.90;8.99;;;;;;;4.50;81.08;101482.13;445458;119;922456;-83
2022/12/22 07:17:14;;;;;;;9.61;8.81;;;;;;;4.52;80.91;101480.14;445293;119;922475;-83
2022/12/22 07:18:18;;;;;;;9.63;8.01;;;;;;;4.52;80.87;101486.36;449242;118;922523;-82
2022/12/22 07:19:21;;;;;;;7.57;6.94;;;;;;;4.53;80.88;101479.11;445634;119;922576;-83
2022/12/22 07:20:24;;;;;;;8.54;7.46;;;;;;;4.54;80.86;101480.81;445519;119;922657;-81
2022/12/22 07:21:27;;;;;;;8.91;8.12;;;;;;;4.55;80.84;101480.66;449195;118;930550;-83
2022/12/22 07:22:31;;;;;;;8.29;7.54;;;;;;;4.58;80.87;101476.79;445574;119;922753;-81
2022/12/22 07:23:34;;;;;;;8.08;7.31;;;;;;;4.59;80.90;101487.45;445639;119;922883;-80
2022/12/22 07:24:38;;;;;;;7.49;6.91;;;;;;;4.61;80.78;101479.20;445528;119;922588;-83
2022/12/22 07:25:41;;;;;;;7.41;6.80;;;;;;;4.63;80.77;101479.05;445612;119;922530;-80
2022/12/22 07:26:45;;;;;;;6.98;6.41;;;;;;;4.65;80.72;101482.43;445279;119;922561;-81
2022/12/22 07:27:48;;;;;;;5.85;5.34;;;;;;;4.66;80.69;101484.98;449241;118;922587;-82
2022/12/22 07:28:51;;;;;;;5.86;5.30;;;;;;;4.68;80.64;101476.73;445641;119;922504;-82
2022/12/22 07:29:54;;;;;;;6.14;5.41;;;;;;;4.69;80.74;101475.70;445617;119;922616;-81
2022/12/22 07:30:57;;;;;;;5.71;5.25;;;;;;;4.70;80.59;101480.96;449243;118;922494;-81
2022/12/22 07:32:00;;;;;;;7.10;6.50;;;;;;;4.74;80.68;101481.52;445352;119;922490;-82
2022/12/22 07:33:04;;;;;;;6.42;5.84;;;;;;;4.75;80.56;101480.49;437125;121;922569;-80
2022/12/22 07:34:07;;;;;;;5.74;5.24;;;;;;;4.77;80.59;101478.50;436219;121;922692;-82
2022/12/22 07:35:10;;;;;;;7.28;6.51;;;;;;;4.80;80.61;101480.87;435422;122;930482;-83
2022/12/22 07:36:18;;;;;;;8.04;7.33;;;;;;;4.82;80.46;101479.73;434640;121;922632;-83
2022/12/22 07:37:22;;;;;;;8.04;7.26;;;;;;;4.83;80.37;101469.77;438715;118;922634;-81
2022/12/22 07:38:25;;;;;;;8.04;7.29;;;;;;;4.84;80.34;101476.88;446186;119;922615;-83
2022/12/22 07:39:28;;;;;;;8.36;7.61;;;;;;;4.85;80.30;101474.00;446173;119;922488;-83
2022/12/22 07:40:31;;;;;;;9.21;7.98;;;;;;;4.87;80.37;101476.55;438702;120;922341;-80
2022/12/22 07:42:59;;;;;;;9.23;8.44;;;;;;;4.89;80.21;101471.86;442669;120;922550;-81
2022/12/22 07:44:03;;;;;;;9.19;8.44;;;;;;;4.90;80.04;101469.00;442662;120;922573;-82
2022/12/22 07:45:07;;;;;;;8.90;8.22;;;;;;;4.91;80.11;101464.42;442750;120;922925;-82
2022/12/22 07:46:11;;;;;;;9.30;8.46;;;;;;;4.91;79.95;101462.56;447108;114;922511;-81
2022/12/22 07:47:14;;;;;;;8.45;7.85;;;;;;;4.93;79.90;101457.02;446624;116;922601;-83
2022/12/22 07:51:05;;;;;;;8.74;7.78;;;;;;;4.96;79.75;101460.23;463088;114;922384;-81
2022/12/22 07:52:09;;;;;;;8.25;7.55;;;;;;;4.95;79.49;101457.72;463471;112;922748;-81
2022/12/22 07:53:12;;;;;;;7.79;7.17;;;;;;;4.94;79.49;101456.02;463302;114;922437;-83
2022/12/22 07:54:16;;;;;;;7.64;6.98;;;;;;;4.92;79.46;101453.46;463278;114;922702;-82
2022/12/22 07:55:20;;;;;;;7.90;7.28;;;;;;;4.89;79.41;101448.38;463178;112;922491;-82
2022/12/22 07:56:23;;;;;;;8.91;7.64;;;;;;;4.89;79.48;101450.23;463168;114;922617;-83
2022/12/22 07:57:26;;;;;;;7.97;7.16;;;;;;;4.87;79.50;101450.38;463291;114;922465;-82
2022/12/22 07:58:29;;;;;;;7.67;7.08;;;;;;;4.87;79.36;101446.83;463290;114;922769;-82
2022/12/22 07:59:32;;;;;;;7.82;7.11;;;;;;;4.87;79.34;101450.38;463280;114;922959;-81
2022/12/22 08:00:37;;;;;;;7.34;6.52;;;;;;;4.87;79.31;101453.08;462797;114;922538;-82
2022/12/22 08:01:41;;;;;;;8.31;7.60;;;;;;;4.86;79.42;101445.98;456232;115;922734;-82
2022/12/22 08:02:48;;;;;;;8.10;7.40;;;;;;;4.87;79.41;101449.53;454415;114;922582;-81
2022/12/22 08:03:52;;;;;;;10.77;7.44;;;;;;;4.88;79.38;101445.83;463112;114;922509;-81
2022/12/22 08:04:55;;;;;;;7.70;7.07;;;;;;;4.87;79.32;101450.38;463262;114;922565;-81
2022/12/22 08:05:58;;;;;;;8.56;7.78;;;;;;;4.87;79.29;101446.83;463244;114;922536;-81
2022/12/22 08:07:01;;;;;;;7.69;6.91;;;;;;;4.89;79.28;101451.09;463422;112;922572;-82
2022/12/22 08:08:05;;;;;;;8.10;7.37;;;;;;;4.90;79.18;101449.23;463254;114;922817;-83
2022/12/22 08:09:09;;;;;;;8.47;7.74;;;;;;;4.89;79.22;101447.53;463245;114;922828;-82
2022/12/22 08:10:12;;;;;;;8.10;7.22;;;;;;;4.89;79.05;101447.53;463172;114;922493;-79
2022/12/22 08:11:16;;;;;;;7.98;7.36;;;;;;;4.88;79.08;101443.13;463125;114;922687;-80
2022/12/22 08:12:19;;;;;;;8.10;7.37;;;;;;;4.87;79.05;101444.98;469744;112;922412;-82
2022/12/22 08:13:22;;;;;;;8.81;8.01;;;;;;;4.87;79.19;101442.27;471498;112;930511;-81
2022/12/22 08:14:25;;;;;;;7.62;6.94;;;;;;;4.88;79.15;101430.47;471436;112;922399;-81
2022/12/22 08:15:29;;;;;;;8.18;7.44;;;;;;;4.88;79.05;101443.13;471442;112;923024;-83
2022/12/22 08:16:32;;;;;;;9.85;7.28;;;;;;;4.89;79.01;101442.12;461357;114;923067;-80
2022/12/22 08:17:36;;;;;;;8.34;7.51;;;;;;;4.88;78.96;101440.42;463173;114;922500;-81
2022/12/22 08:18:40;;;;;;;8.81;7.39;;;;;;;4.86;79.05;101448.68;463205;114;922920;-81
2022/12/22 08:19:43;;;;;;;8.29;7.52;;;;;;;4.87;79.10;101438.72;463199;114;922427;-81
2022/12/22 08:20:50;;;;;;;8.68;7.91;;;;;;;4.87;79.06;101444.13;463120;114;930573;-80
2022/12/22 08:21:54;;;;;;;8.39;7.52;;;;;;;4.88;79.06;101445.83;463377;112;922670;-81
2022/12/22 08:22:57;;;;;;;8.14;7.44;;;;;;;4.90;79.09;101441.13;463281;114;922437;-82
2022/12/22 08:24:00;;;;;;;8.73;7.94;;;;;;;4.94;79.09;101442.50;463238;114;922574;-80
2022/12/22 08:25:04;;;;;;;8.96;7.90;;;;;;;4.95;79.08;101444.20;463274;114;922752;-82
2022/12/22 08:26:11;;;;;;;8.91;8.15;;;;;;;4.96;79.08;101440.50;463207;114;922624;-81
2022/12/22 08:27:17;;;;;;;8.38;7.44;;;;;;;4.99;79.23;101432.06;466781;112;922570;-80
2022/12/22 08:28:23;;;;;;;8.74;7.93;;;;;;;5.01;79.25;101430.92;467611;113;922768;-82
2022/12/22 08:29:29;;;;;;;8.30;7.28;;;;;;;5.04;79.16;101427.03;468573;113;922490;-81
2022/12/22 08:30:40;;;;;;;8.26;7.12;;;;;;;5.18;79.11;101426.47;482511;110;947572;-81
2022/12/22 08:31:43;;;;;;;7.83;7.13;;;;;;;5.11;79.02;101432.66;473099;112;923152;-82
2022/12/22 08:32:48;;;;;;;8.48;7.73;;;;;;;5.13;78.97;101436.06;473942;112;930558;-80
2022/12/22 08:33:53;;;;;;;9.09;7.43;;;;;;;5.15;79.02;101432.17;473836;112;930910;-81
2022/12/22 08:34:57;;;;;;;8.04;7.36;;;;;;;5.18;78.95;101437.28;471086;112;922419;-83
2022/12/22 08:36:00;;;;;;;8.38;7.59;;;;;;;5.21;79.03;101431.55;465700;114;922913;-79
2022/12/22 08:37:09;;;;;;;10.11;7.02;;;;;;;5.24;78.97;101431.20;464645;113;922866;-81